Time,TemperatureF,DewpointF,PressureIn,WindDirection,WindDirectionDegrees,WindSpeedMPH,WindSpeedGustMPH,Humidity,HourlyPrecipIn,Conditions,Clouds,dailyrainin,SoftwareType,DateUTC
2013-03-18 18:02:00,85.6,68.2,29.53,West,270,0.0,0.0,56,0.00,,,0.00,VWS V14.01,2013-03-18 08:02:00,
2013-03-18 18:08:00,85.3,68.3,29.53,WSW,248,0.0,0.0,57,0.00,,,0.00,VWS V14.01,2013-03-18 08:08:00,
2013-03-18 18:13:00,85.1,68.2,29.53,WSW,248,0.0,0.9,57,0.00,,,0.00,VWS V14.01,2013-03-18 08:13:00,
2013-03-18 18:18:00,84.7,67.8,29.53,WSW,248,0.0,0.0,57,0.00,,,0.00,VWS V14.01,2013-03-18 08:18:00,
2013-03-18 18:23:00,84.7,67.8,29.53,SW,225,1.3,1.3,57,0.00,,,0.00,VWS V14.01,2013-03-18 08:23:00,
2013-03-18 18:28:00,84.6,68.2,29.53,SW,225,2.5,2.5,58,0.00,,,0.00,VWS V14.01,2013-03-18 08:28:00,
2013-03-18 18:33:00,84.6,68.2,29.53,SW,225,0.0,0.0,58,0.00,,,0.00,VWS V14.01,2013-03-18 08:33:00,
2013-03-18 18:39:00,84.4,68.5,29.56,South,180,0.0,0.9,59,0.00,,,0.00,VWS V14.01,2013-03-18 08:39:00,
2013-03-18 18:44:00,83.8,68.5,29.56,South,180,2.7,2.7,60,0.00,,,0.00,VWS V14.01,2013-03-18 08:44:00,
2013-03-18 18:49:00,83.7,68.8,29.56,South,180,2.5,2.5,61,0.00,,,0.00,VWS V14.01,2013-03-18 08:49:00,
2013-03-18 18:54:00,83.8,69.0,29.56,SW,225,2.0,2.2,61,0.00,,,0.00,VWS V14.01,2013-03-18 08:54:00,
2013-03-18 18:59:00,83.5,68.6,29.56,SW,225,2.0,2.0,61,0.00,,,0.00,VWS V14.01,2013-03-18 08:59:00,
2013-03-18 19:04:00,83.3,68.9,29.56,SSW,202,0.0,0.0,62,0.00,,,0.00,VWS V14.01,2013-03-18 09:04:00,
2013-03-18 19:09:00,83.1,69.2,29.56,SSW,202,0.0,0.0,63,0.00,,,0.00,VWS V14.01,2013-03-18 09:09:00,
2013-03-18 19:14:00,83.1,69.2,29.56,SSW,202,0.0,0.0,63,0.00,,,0.00,VWS V14.01,2013-03-18 09:14:00,
2013-03-18 19:19:00,82.8,68.9,29.56,SSW,202,0.0,1.6,63,0.00,,,0.00,VWS V14.01,2013-03-18 09:19:00,
2013-03-18 19:25:00,82.9,69.1,29.56,SW,225,0.0,0.0,63,0.00,,,0.00,VWS V14.01,2013-03-18 09:25:00,
2013-03-18 19:30:00,82.9,69.1,29.56,SSW,202,0.0,0.0,63,0.00,,,0.00,VWS V14.01,2013-03-18 09:30:00,
2013-03-18 19:35:00,82.9,69.1,29.59,SSW,202,3.8,3.8,63,0.00,,,0.00,VWS V14.01,2013-03-18 09:35:00,
2013-03-18 19:40:00,82.8,68.9,29.59,SSW,202,0.0,4.0,63,0.00,,,0.00,VWS V14.01,2013-03-18 09:40:00,
2013-03-18 19:45:00,82.4,68.6,29.59,SSW,202,3.1,3.1,63,0.00,,,0.00,VWS V14.01,2013-03-18 09:45:00,
2013-03-18 19:50:00,82.6,69.2,29.59,SW,225,2.0,3.4,64,0.00,,,0.00,VWS V14.01,2013-03-18 09:50:00,
2013-03-18 19:55:00,82.0,68.7,29.59,South,180,1.3,2.7,64,0.00,,,0.00,VWS V14.01,2013-03-18 09:55:00,
2013-03-18 20:00:00,81.7,68.3,29.59,South,180,4.0,4.0,64,0.00,,,0.00,VWS V14.01,2013-03-18 10:00:00,
2013-03-18 20:06:00,81.7,68.8,29.59,SSW,202,3.4,3.4,65,0.00,,,0.00,VWS V14.01,2013-03-18 10:06:00,
2013-03-18 20:11:00,81.5,68.6,29.59,SSW,202,1.6,2.5,65,0.00,,,0.00,VWS V14.01,2013-03-18 10:11:00,
2013-03-18 20:16:00,81.7,68.8,29.59,SSW,202,2.9,2.9,65,0.00,,,0.00,VWS V14.01,2013-03-18 10:16:00,
2013-03-18 20:21:00,81.5,68.6,29.59,SSW,202,1.6,4.0,65,0.00,,,0.00,VWS V14.01,2013-03-18 10:21:00,
2013-03-18 20:26:00,81.1,68.7,29.59,South,180,3.1,4.3,66,0.00,,,0.00,VWS V14.01,2013-03-18 10:26:00,
2013-03-18 20:31:00,81.0,68.5,29.59,South,180,3.8,3.8,66,0.00,,,0.00,VWS V14.01,2013-03-18 10:31:00,
2013-03-18 20:37:00,81.1,68.7,29.59,SW,225,2.0,2.0,66,0.00,,,0.00,VWS V14.01,2013-03-18 10:37:00,
2013-03-18 20:42:00,81.0,68.5,29.59,SW,225,2.7,2.7,66,0.00,,,0.00,VWS V14.01,2013-03-18 10:42:00,
2013-03-18 20:47:00,81.0,68.5,29.59,SSW,202,2.5,2.5,66,0.00,,,0.00,VWS V14.01,2013-03-18 10:47:00,
2013-03-18 20:53:00,81.0,68.5,29.59,SSW,202,2.9,2.9,66,0.00,,,0.00,VWS V14.01,2013-03-18 10:53:00,
2013-03-18 20:58:00,80.8,68.4,29.59,SW,225,2.9,3.1,66,0.00,,,0.00,VWS V14.01,2013-03-18 10:58:00,
2013-03-18 21:03:00,81.0,69.0,29.59,SW,225,2.0,3.4,67,0.00,,,0.00,VWS V14.01,2013-03-18 11:03:00,
2013-03-18 21:08:00,80.8,68.8,29.59,SSW,202,2.0,3.8,67,0.00,,,0.00,VWS V14.01,2013-03-18 11:08:00,
2013-03-18 21:13:00,80.6,68.6,29.62,SW,225,2.2,2.2,67,0.00,,,0.00,VWS V14.01,2013-03-18 11:13:00,
2013-03-18 21:18:00,80.8,68.8,29.62,SW,225,2.9,2.9,67,0.00,,,0.00,VWS V14.01,2013-03-18 11:18:00,
2013-03-18 21:23:00,81.0,69.0,29.62,SW,225,2.5,2.5,67,0.00,,,0.00,VWS V14.01,2013-03-18 11:23:00,
2013-03-18 21:28:00,80.6,68.6,29.62,South,180,3.8,3.8,67,0.00,,,0.00,VWS V14.01,2013-03-18 11:28:00,
2013-03-18 21:33:00,80.6,69.1,29.62,SSW,202,1.3,4.3,68,0.00,,,0.00,VWS V14.01,2013-03-18 11:33:00,
2013-03-18 21:39:00,80.8,69.2,29.62,South,180,2.5,3.4,68,0.00,,,0.00,VWS V14.01,2013-03-18 11:39:00,
2013-03-18 21:44:00,80.6,69.1,29.62,SSW,202,0.0,0.0,68,0.00,,,0.00,VWS V14.01,2013-03-18 11:44:00,
2013-03-18 21:49:00,80.6,69.1,29.62,SSW,202,0.0,0.0,68,0.00,,,0.00,VWS V14.01,2013-03-18 11:49:00,
2013-03-18 21:54:00,80.4,68.9,29.62,SW,225,0.0,0.0,68,0.00,,,0.00,VWS V14.01,2013-03-18 11:54:00,
2013-03-18 21:59:00,80.4,68.9,29.62,SSW,202,0.0,2.5,68,0.00,,,0.00,VWS V14.01,2013-03-18 11:59:00,
2013-03-18 22:04:00,80.6,69.1,29.62,SSW,202,1.6,1.6,68,0.00,,,0.00,VWS V14.01,2013-03-18 12:04:00,
2013-03-18 22:09:00,80.2,69.2,29.62,SSW,202,0.0,0.0,69,0.00,,,0.00,VWS V14.01,2013-03-18 12:09:00,
2013-03-18 22:14:00,80.2,69.2,29.62,SSE,158,2.0,2.2,69,0.00,,,0.00,VWS V14.01,2013-03-18 12:14:00,
2013-03-18 22:19:00,80.2,69.6,29.62,SSE,158,0.0,0.0,70,0.00,,,0.00,VWS V14.01,2013-03-18 12:19:00,
2013-03-18 22:25:00,80.1,69.4,29.62,SE,135,0.0,0.0,70,0.00,,,0.00,VWS V14.01,2013-03-18 12:25:00,
2013-03-18 22:30:00,80.1,69.4,29.62,SE,135,2.0,2.0,70,0.00,,,0.00,VWS V14.01,2013-03-18 12:30:00,
2013-03-18 22:35:00,80.1,69.4,29.62,SSE,158,2.5,3.4,70,0.00,,,0.00,VWS V14.01,2013-03-18 12:35:00,
2013-03-18 22:40:00,80.1,69.8,29.62,SSE,158,0.0,1.1,71,0.00,,,0.00,VWS V14.01,2013-03-18 12:40:00,
2013-03-18 22:45:00,79.9,69.6,29.62,SE,135,0.0,0.0,71,0.00,,,0.00,VWS V14.01,2013-03-18 12:45:00,
2013-03-18 22:50:00,79.7,69.9,29.62,SE,135,2.2,2.2,72,0.00,,,0.00,VWS V14.01,2013-03-18 12:50:00,
2013-03-18 22:55:00,79.7,69.9,29.62,SSE,158,0.0,0.0,72,0.00,,,0.00,VWS V14.01,2013-03-18 12:55:00,
2013-03-18 23:00:00,79.5,69.7,29.62,SSE,158,2.5,2.5,72,0.00,,,0.00,VWS V14.01,2013-03-18 13:00:00,
2013-03-18 23:05:00,79.5,69.7,29.62,SSE,158,0.0,0.0,72,0.00,,,0.00,VWS V14.01,2013-03-18 13:05:00,
2013-03-18 23:10:00,79.7,69.9,29.62,SW,225,0.0,0.0,72,0.00,,,0.00,VWS V14.01,2013-03-18 13:10:00,
2013-03-18 23:15:00,79.5,69.7,29.62,South,180,0.0,0.0,72,0.00,,,0.00,VWS V14.01,2013-03-18 13:15:00,
2013-03-18 23:20:00,79.5,69.7,29.62,South,180,2.7,2.7,72,0.00,,,0.00,VWS V14.01,2013-03-18 13:20:00,
2013-03-18 23:25:00,79.3,69.5,29.62,South,180,2.2,2.2,72,0.00,,,0.00,VWS V14.01,2013-03-18 13:25:00,
2013-03-18 23:31:00,79.2,69.4,29.62,SSE,158,1.3,1.3,72,0.00,,,0.00,VWS V14.01,2013-03-18 13:31:00,
2013-03-18 23:36:00,79.2,69.4,29.62,SSE,158,3.1,3.1,72,0.00,,,0.00,VWS V14.01,2013-03-18 13:36:00,
2013-03-18 23:41:00,78.8,69.0,29.62,SSE,158,2.5,2.5,72,0.00,,,0.00,VWS V14.01,2013-03-18 13:41:00,
2013-03-18 23:46:00,79.0,69.6,29.62,SSE,158,3.8,3.8,73,0.00,,,0.00,VWS V14.01,2013-03-18 13:46:00,
2013-03-18 23:51:00,79.0,69.2,29.62,South,180,2.9,2.9,72,0.00,,,0.00,VWS V14.01,2013-03-18 13:51:00,
2013-03-18 23:56:00,78.6,69.2,29.62,SSW,202,2.0,2.0,73,0.00,,,0.00,VWS V14.01,2013-03-18 13:56:00,